createdAt,value
2024-01-15T00:01:20.532Z,11.33
2024-01-15T00:02:53.678Z,12.83
2024-01-15T00:04:25.946Z,10.37
2024-01-15T00:06:00.602Z,11.67
2024-01-15T00:07:32.809Z,10.97
2024-01-15T00:09:07.839Z,10.87
2024-01-15T00:10:41.655Z,12.97
2024-01-15T00:12:14.740Z,12.87
2024-01-15T00:13:46.892Z,12.48
2024-01-15T00:15:20.082Z,12.13
2024-01-15T00:16:52.548Z,13.23
2024-01-15T00:18:25.829Z,11.47
2024-01-15T00:19:58.460Z,13.57
2024-01-15T00:21:32.959Z,13.47
2024-01-15T00:23:06.323Z,12.03
2024-01-15T00:24:38.485Z,14.27
2024-01-15T00:26:11.840Z,12.33
2024-01-15T00:27:44.026Z,13.70
2024-01-15T00:29:17.236Z,11.67
2024-01-15T00:30:49.583Z,16.10
2024-01-15T00:32:23.178Z,13.13
2024-01-15T00:33:55.548Z,12.45
2024-01-15T00:35:28.871Z,13.23
2024-01-15T00:37:02.439Z,12.93
2024-01-15T00:38:35.658Z,12.20
2024-01-15T00:40:09.191Z,11.73
2024-01-15T00:41:42.414Z,15.13
2024-01-15T00:43:14.728Z,14.70
2024-01-15T00:44:47.885Z,12.80
2024-01-15T00:46:19.987Z,12.60
2024-01-15T00:47:54.044Z,13.43
2024-01-15T00:49:28.210Z,11.77
2024-01-15T00:51:01.472Z,12.03
2024-01-15T00:52:34.984Z,11.57
2024-01-15T00:54:08.560Z,13.37
2024-01-15T00:55:41.734Z,15.07
2024-01-15T00:57:13.960Z,14.03
2024-01-15T00:58:47.170Z,11.23
2024-01-15T01:00:19.569Z,12.53
2024-01-15T01:01:52.810Z,12.53
2024-01-15T01:03:25.106Z,12.33
2024-01-15T01:04:58.317Z,12.40
2024-01-15T01:06:33.447Z,11.03
2024-01-15T01:08:08.880Z,13.17
2024-01-15T01:09:41.092Z,11.60
2024-01-15T01:11:15.590Z,12.30
2024-01-15T01:12:48.109Z,12.43
2024-01-15T01:14:21.341Z,12.43
2024-01-15T01:15:54.584Z,13.90
2024-01-15T01:17:26.847Z,10.77
2024-01-15T01:19:00.215Z,12.00
2024-01-15T01:20:32.612Z,11.73
2024-01-15T01:22:06.238Z,11.53
2024-01-15T01:23:40.732Z,13.30
2024-01-15T01:25:13.968Z,12.17
2024-01-15T01:26:47.912Z,12.30
2024-01-15T01:28:20.083Z,11.37
2024-01-15T01:29:53.224Z,12.32
2024-01-15T01:31:25.866Z,10.10
2024-01-15T01:32:59.112Z,12.27
2024-01-15T01:34:34.675Z,12.50
2024-01-15T01:36:10.452Z,12.80
2024-01-15T01:37:42.689Z,12.35
2024-01-15T01:39:17.220Z,10.67
2024-01-15T01:40:49.398Z,13.40
2024-01-15T01:42:22.552Z,11.27
2024-01-15T01:43:55.224Z,13.77
2024-01-15T01:45:28.457Z,12.55
2024-01-15T01:47:02.085Z,11.55
2024-01-15T01:48:35.832Z,12.40
2024-01-15T01:50:08.804Z,12.10
2024-01-15T01:51:41.980Z,11.87
2024-01-15T01:53:14.517Z,11.23
2024-01-15T01:54:49.361Z,11.68
2024-01-15T01:56:22.857Z,10.57
2024-01-15T01:57:56.588Z,11.47
2024-01-15T01:59:30.592Z,11.20
2024-01-15T02:01:02.973Z,12.80
2024-01-15T02:02:36.651Z,10.63
2024-01-15T02:04:09.858Z,12.93
2024-01-15T02:05:45.781Z,11.23
2024-01-15T02:07:18.938Z,12.45
2024-01-15T02:08:53.035Z,12.67
2024-01-15T02:10:26.660Z,11.93
2024-01-15T02:11:59.991Z,12.93
2024-01-15T02:13:32.373Z,12.43
2024-01-15T02:15:06.044Z,14.15
2024-01-15T02:16:38.216Z,12.77
2024-01-15T02:18:11.583Z,14.70
2024-01-15T02:19:43.941Z,13.25
2024-01-15T02:21:17.552Z,12.40
2024-01-15T02:22:50.101Z,13.02
2024-01-15T02:24:24.824Z,13.23
2024-01-15T02:25:57.005Z,12.48
2024-01-15T02:27:30.226Z,13.55
2024-01-15T02:29:02.827Z,13.57
2024-01-15T02:30:39.129Z,14.00
2024-01-15T02:32:11.441Z,13.35
2024-01-15T02:33:45.083Z,14.30
2024-01-15T02:35:17.430Z,12.18
2024-01-15T02:36:50.650Z,14.38
2024-01-15T02:38:24.103Z,13.87
2024-01-15T02:39:57.757Z,11.83
2024-01-15T02:41:30.850Z,15.68
2024-01-15T02:43:03.179Z,13.80
2024-01-15T02:44:36.509Z,12.30
2024-01-15T02:46:08.760Z,11.35
2024-01-15T02:47:41.943Z,12.57
2024-01-15T02:49:14.230Z,13.20
2024-01-15T02:50:47.373Z,12.75
2024-01-15T02:52:19.696Z,14.38
2024-01-15T02:53:52.883Z,13.97
2024-01-15T02:55:26.420Z,15.52
2024-01-15T02:56:59.575Z,13.93
2024-01-15T02:58:31.825Z,13.77
2024-01-15T03:00:06.065Z,14.23
2024-01-15T03:01:38.389Z,16.65
2024-01-15T03:03:11.673Z,13.23
2024-01-15T03:04:44.827Z,14.23
2024-01-15T03:06:17.993Z,12.25
2024-01-15T03:07:50.185Z,12.75
2024-01-15T03:09:23.426Z,13.77
2024-01-15T03:10:57.031Z,15.65
2024-01-15T03:12:30.274Z,13.80
2024-01-15T03:14:03.387Z,14.20
2024-01-15T03:15:35.584Z,12.63
2024-01-15T03:17:10.198Z,13.43
2024-01-15T03:18:42.471Z,15.77
2024-01-15T03:20:15.828Z,14.93
2024-01-15T03:21:48.005Z,14.47
2024-01-15T03:23:21.294Z,13.35
2024-01-15T03:24:54.354Z,12.33
2024-01-15T03:26:28.989Z,13.07
2024-01-15T03:28:02.088Z,14.43
2024-01-15T03:29:34.514Z,15.55
2024-01-15T03:31:07.754Z,14.13
2024-01-15T03:32:40.477Z,17.38
2024-01-15T03:34:13.911Z,15.68
2024-01-15T03:35:46.081Z,14.40
2024-01-15T03:37:19.199Z,15.10
2024-01-15T03:38:51.355Z,15.90
2024-01-15T03:40:24.645Z,17.65
2024-01-15T03:41:58.729Z,14.32
2024-01-15T03:43:31.854Z,15.98
2024-01-15T03:45:04.605Z,16.27
2024-01-15T03:46:37.760Z,17.33
2024-01-15T03:48:10.051Z,18.17
2024-01-15T03:49:43.343Z,18.70
2024-01-15T03:51:19.165Z,17.03
2024-01-15T03:52:52.299Z,16.73
2024-01-15T03:54:24.570Z,16.48
2024-01-15T03:55:58.056Z,15.98
2024-01-15T03:57:31.644Z,16.02
2024-01-15T03:59:05.109Z,18.10
2024-01-15T04:00:37.363Z,18.53
2024-01-15T04:02:11.189Z,17.77
2024-01-15T04:03:44.371Z,15.38
2024-01-15T04:05:17.605Z,15.03
2024-01-15T04:06:49.908Z,16.08
2024-01-15T04:08:23.132Z,17.80
2024-01-15T04:09:56.680Z,16.77
2024-01-15T04:11:28.816Z,17.15
2024-01-15T04:13:04.682Z,15.73
2024-01-15T04:14:36.916Z,18.20
2024-01-15T04:16:10.084Z,18.40
2024-01-15T04:17:42.354Z,17.30
2024-01-15T04:19:15.671Z,17.10
2024-01-15T04:20:47.878Z,18.58
2024-01-15T04:22:21.122Z,17.92
2024-01-15T04:23:53.269Z,18.75
2024-01-15T04:25:26.523Z,17.70
2024-01-15T04:26:58.639Z,19.77
2024-01-15T04:28:33.095Z,17.35
2024-01-15T04:30:06.491Z,16.70
2024-01-15T04:31:39.789Z,17.02
2024-01-15T04:33:12.177Z,19.45
2024-01-15T04:34:45.511Z,16.63
2024-01-15T04:36:18.961Z,16.27
2024-01-15T04:37:51.309Z,17.77
2024-01-15T04:39:24.961Z,17.40
2024-01-15T04:40:58.590Z,15.85
2024-01-15T04:42:32.257Z,17.80
2024-01-15T04:44:06.092Z,16.05
2024-01-15T04:45:39.643Z,17.33
2024-01-15T04:47:12.116Z,16.42
2024-01-15T04:48:45.636Z,18.45
2024-01-15T04:50:18.110Z,16.42
2024-01-15T04:51:51.728Z,16.38
2024-01-15T04:53:24.253Z,16.50
2024-01-15T04:54:57.766Z,15.48
2024-01-15T04:56:30.183Z,17.95
2024-01-15T04:58:03.607Z,15.23
2024-01-15T04:59:37.486Z,16.17
2024-01-15T05:01:11.338Z,14.27
2024-01-15T05:02:44.236Z,16.13
2024-01-15T05:04:18.222Z,14.88
2024-01-15T05:05:50.848Z,15.07
2024-01-15T05:07:24.317Z,16.27
2024-01-15T05:08:56.805Z,18.00
2024-01-15T05:10:30.242Z,15.35
2024-01-15T05:12:02.677Z,17.60
2024-01-15T05:13:36.139Z,19.23
2024-01-15T05:15:11.844Z,17.15
2024-01-15T05:16:49.258Z,15.43
2024-01-15T05:18:23.218Z,15.35
2024-01-15T05:19:55.929Z,19.05
2024-01-15T05:21:29.590Z,15.55
2024-01-15T05:23:03.033Z,16.08
2024-01-15T05:24:35.501Z,15.15
2024-01-15T05:26:10.053Z,15.50
2024-01-15T05:27:42.532Z,16.48
2024-01-15T05:29:16.082Z,16.98
2024-01-15T05:30:51.750Z,16.08
2024-01-15T05:32:25.321Z,15.20
2024-01-15T05:33:57.852Z,15.70
2024-01-15T05:35:31.348Z,16.77
2024-01-15T05:37:03.861Z,17.92
2024-01-15T05:38:37.354Z,17.00
2024-01-15T05:40:10.140Z,16.35
2024-01-15T05:41:43.620Z,13.98
2024-01-15T05:43:17.053Z,14.75
2024-01-15T05:44:49.486Z,13.73
2024-01-15T05:46:24.287Z,15.40
2024-01-15T05:47:57.141Z,17.67
2024-01-15T05:49:30.820Z,15.30
2024-01-15T05:51:04.471Z,13.55
2024-01-15T05:52:36.923Z,13.55
2024-01-15T05:54:10.527Z,17.90
2024-01-15T05:55:43.045Z,15.55
2024-01-15T05:57:16.598Z,14.00
2024-01-15T05:58:50.042Z,16.83
2024-01-15T06:00:22.679Z,17.70
2024-01-15T06:01:57.494Z,16.58
2024-01-15T06:03:30.092Z,14.15
2024-01-15T06:05:04.237Z,17.75
2024-01-15T06:06:36.953Z,17.35
2024-01-15T06:08:10.423Z,15.27
2024-01-15T06:09:42.970Z,14.85
2024-01-15T06:11:16.403Z,17.90
2024-01-15T06:12:49.900Z,17.70
2024-01-15T06:14:22.371Z,14.13
2024-01-15T06:15:55.898Z,13.68
2024-01-15T06:17:30.735Z,15.00
2024-01-15T06:19:03.413Z,15.15
2024-01-15T06:20:36.917Z,14.35
2024-01-15T06:22:10.378Z,14.18
2024-01-15T06:23:42.812Z,15.68
2024-01-15T06:25:16.336Z,16.70
2024-01-15T06:26:49.206Z,14.98
2024-01-15T06:28:22.619Z,17.27
2024-01-15T06:29:56.868Z,16.77
2024-01-15T06:31:30.365Z,16.92
2024-01-15T06:33:04.923Z,16.73
2024-01-15T06:34:38.555Z,16.35
2024-01-15T06:36:12.044Z,14.93
2024-01-15T06:37:45.825Z,16.35
2024-01-15T06:39:18.338Z,15.77
2024-01-15T06:40:54.121Z,16.90
2024-01-15T06:42:28.285Z,15.15
2024-01-15T06:44:00.736Z,12.90
2024-01-15T06:45:34.196Z,12.88
2024-01-15T06:47:07.270Z,13.15
2024-01-15T06:48:42.169Z,15.63
2024-01-15T06:50:14.702Z,14.55
2024-01-15T06:51:49.720Z,16.17
2024-01-15T06:53:22.557Z,14.60
2024-01-15T06:54:56.034Z,15.55
2024-01-15T06:56:28.721Z,13.70
2024-01-15T06:58:02.148Z,14.27
2024-01-15T06:59:36.406Z,16.42
2024-01-15T07:01:09.643Z,15.32
2024-01-15T07:02:43.222Z,13.98
2024-01-15T07:04:17.161Z,15.57
2024-01-15T07:05:51.083Z,12.60
2024-01-15T07:07:23.636Z,12.20
2024-01-15T07:08:57.056Z,12.57
2024-01-15T07:10:29.545Z,12.65
2024-01-15T07:12:02.983Z,15.43
2024-01-15T07:13:35.736Z,10.98
2024-01-15T07:15:09.605Z,12.65
2024-01-15T07:18:15.732Z,14.15
2024-01-15T07:19:49.828Z,12.52
2024-01-15T07:21:23.323Z,11.73
2024-01-15T07:22:55.907Z,12.65
2024-01-15T07:24:29.423Z,13.80
2024-01-15T07:26:01.884Z,12.98
2024-01-15T07:27:35.795Z,13.05
2024-01-15T07:29:09.507Z,12.88
2024-01-15T07:30:43.028Z,12.63
2024-01-15T07:32:15.629Z,12.10
2024-01-15T07:33:49.166Z,14.38
2024-01-15T07:35:23.240Z,13.40
2024-01-15T07:36:56.952Z,11.00
2024-01-15T07:38:29.590Z,14.32
2024-01-15T07:40:03.804Z,12.98
2024-01-15T07:41:36.312Z,14.13
2024-01-15T07:43:10.380Z,12.95
2024-01-15T07:44:42.819Z,13.10
2024-01-15T07:46:16.262Z,15.55
2024-01-15T07:47:48.798Z,16.27
2024-01-15T07:49:22.427Z,11.20
2024-01-15T07:50:56.238Z,12.90
2024-01-15T07:52:29.422Z,8.98
2024-01-15T07:54:02.411Z,13.77
2024-01-15T07:55:35.554Z,9.93
2024-01-15T07:57:07.716Z,10.95
2024-01-15T07:58:41.027Z,11.80
2024-01-15T08:00:13.843Z,11.25
2024-01-15T08:01:47.002Z,12.85
2024-01-15T08:03:19.710Z,9.23
2024-01-15T08:04:53.034Z,12.85
2024-01-15T08:06:27.739Z,11.65
2024-01-15T08:08:00.220Z,11.70
2024-01-15T08:09:33.502Z,14.25
2024-01-15T08:11:06.153Z,12.95
2024-01-15T08:12:39.356Z,12.05
2024-01-15T08:14:12.439Z,11.07
2024-01-15T08:15:45.737Z,13.30
2024-01-15T08:17:18.165Z,11.35
2024-01-15T08:18:51.568Z,11.95
2024-01-15T08:20:23.860Z,11.80
2024-01-15T08:21:58.470Z,11.27
2024-01-15T08:23:32.349Z,12.90
2024-01-15T08:25:06.006Z,11.30
2024-01-15T08:26:38.172Z,9.75
2024-01-15T08:28:11.319Z,12.87
2024-01-15T08:29:43.584Z,12.65
2024-01-15T08:31:16.779Z,10.50
2024-01-15T08:32:50.049Z,12.18
2024-01-15T08:34:22.292Z,11.15
2024-01-15T08:35:55.522Z,11.98
2024-01-15T08:37:29.175Z,13.13
2024-01-15T08:39:02.344Z,10.88
2024-01-15T08:40:34.605Z,9.57
2024-01-15T08:42:08.868Z,12.52
2024-01-15T08:43:41.129Z,11.05
2024-01-15T08:45:14.709Z,11.27
2024-01-15T08:46:47.914Z,12.82
2024-01-15T08:48:20.463Z,10.00
2024-01-15T08:49:54.639Z,10.77
2024-01-15T08:51:27.728Z,11.35
2024-01-15T08:53:02.570Z,13.15
2024-01-15T08:54:36.094Z,11.37
2024-01-15T08:56:09.691Z,14.02
2024-01-15T08:57:44.328Z,10.97
2024-01-15T08:59:17.316Z,10.50
2024-01-15T09:00:51.989Z,9.02
2024-01-15T09:02:24.537Z,7.93
2024-01-15T09:03:58.074Z,10.45
2024-01-15T09:05:31.667Z,10.60
2024-01-15T09:07:05.179Z,10.07
2024-01-15T09:08:40.007Z,9.98
2024-01-15T09:10:13.464Z,10.00
2024-01-15T09:11:47.659Z,12.15
2024-01-15T09:13:21.114Z,8.80
2024-01-15T09:14:54.825Z,9.43
2024-01-15T09:16:28.293Z,9.90
2024-01-15T09:18:03.129Z,9.43
2024-01-15T09:19:37.407Z,8.35
2024-01-15T09:21:09.987Z,8.40
2024-01-15T09:22:43.778Z,10.00
2024-01-15T09:24:17.609Z,8.93
2024-01-15T09:26:01.063Z,9.13
2024-01-15T09:27:33.923Z,8.20
2024-01-15T09:29:07.387Z,9.73
2024-01-15T09:30:40.413Z,11.20
2024-01-15T09:32:14.229Z,9.20
2024-01-15T09:33:46.473Z,7.80
2024-01-15T09:35:21.301Z,10.03
2024-01-15T09:36:54.291Z,8.27
2024-01-15T09:38:27.979Z,8.57
2024-01-15T09:40:01.593Z,8.63
2024-01-15T09:41:34.962Z,7.63
2024-01-15T09:43:07.662Z,7.77
2024-01-15T09:44:40.902Z,8.17
2024-01-15T09:46:13.474Z,7.43
2024-01-15T09:47:47.404Z,11.50
2024-01-15T09:49:21.030Z,9.07
2024-01-15T09:50:54.144Z,7.50
2024-01-15T09:52:28.501Z,8.70
2024-01-15T09:54:01.906Z,8.67
2024-01-15T09:55:36.683Z,6.63
2024-01-15T09:57:09.706Z,9.10
2024-01-15T09:58:43.722Z,7.67
2024-01-15T10:00:19.234Z,9.27
2024-01-15T10:01:54.067Z,9.40
2024-01-15T10:03:27.390Z,7.27
2024-01-15T10:04:59.717Z,6.03
2024-01-15T10:06:33.480Z,7.07
2024-01-15T10:08:06.524Z,8.03
2024-01-15T10:09:39.783Z,6.10
2024-01-15T10:11:14.292Z,8.07
2024-01-15T10:12:46.540Z,6.90
2024-01-15T10:14:20.041Z,8.43
2024-01-15T10:15:52.500Z,13.17
2024-01-15T10:17:26.701Z,9.10
2024-01-15T10:18:59.000Z,9.37
2024-01-15T10:20:34.785Z,8.57
2024-01-15T10:22:07.347Z,11.50
2024-01-15T10:23:40.489Z,7.13
2024-01-15T10:25:13.978Z,7.73
2024-01-15T10:26:48.562Z,6.30
2024-01-15T10:28:21.808Z,7.40
2024-01-15T10:29:55.079Z,9.00
2024-01-15T10:31:30.366Z,6.43
2024-01-15T10:33:06.442Z,7.23
2024-01-15T10:34:42.886Z,6.87
2024-01-15T10:36:17.644Z,8.50
2024-01-15T10:37:49.768Z,6.77
2024-01-15T10:39:22.941Z,9.43
2024-01-15T10:40:57.345Z,10.07
2024-01-15T10:42:30.962Z,8.80
2024-01-15T10:44:04.292Z,6.10
2024-01-15T10:45:36.491Z,7.70
2024-01-15T10:47:10.165Z,8.33
2024-01-15T10:48:43.708Z,7.43
2024-01-15T10:50:16.511Z,8.53
2024-01-15T10:51:50.682Z,7.80
2024-01-15T10:53:26.148Z,8.60
2024-01-15T10:55:00.157Z,7.40
2024-01-15T10:56:35.987Z,9.67
2024-01-15T10:58:10.604Z,7.13
2024-01-15T10:59:43.722Z,7.53
2024-01-15T11:01:16.968Z,9.97
2024-01-15T11:02:50.632Z,9.97
2024-01-15T11:04:24.308Z,10.93
2024-01-15T11:05:57.757Z,7.67
2024-01-15T11:07:31.845Z,6.70
2024-01-15T11:09:05.600Z,9.17
2024-01-15T11:10:42.286Z,7.70
2024-01-15T11:12:17.348Z,7.70
2024-01-15T11:13:52.780Z,9.60
2024-01-15T11:15:30.291Z,6.60
2024-01-15T11:17:02.600Z,9.40
2024-01-15T11:18:41.670Z,10.40
2024-01-15T11:20:14.444Z,6.43
2024-01-15T11:21:47.614Z,6.80
2024-01-15T11:23:43.474Z,8.07
2024-01-15T11:25:17.419Z,6.63
2024-01-15T11:26:49.604Z,8.37
2024-01-15T11:28:49.623Z,9.93
2024-01-15T11:30:28.206Z,7.87
2024-01-15T11:32:02.842Z,7.10
2024-01-15T11:33:36.902Z,8.13
2024-01-15T11:35:11.130Z,8.20
2024-01-15T11:37:05.144Z,9.20
2024-01-15T11:38:38.905Z,5.80
2024-01-15T11:40:13.233Z,8.33
2024-01-15T11:41:46.647Z,9.23
2024-01-15T11:43:23.035Z,8.80
2024-01-15T11:44:55.831Z,9.33
2024-01-15T11:46:39.348Z,8.10
2024-01-15T11:48:14.076Z,7.43
2024-01-15T11:50:02.284Z,6.40
2024-01-15T11:51:36.604Z,7.00
2024-01-15T11:53:18.038Z,7.47
2024-01-15T11:54:57.724Z,7.50
2024-01-15T11:56:30.169Z,6.63
2024-01-15T11:58:06.821Z,5.43
2024-01-15T11:59:39.112Z,7.23
2024-01-15T12:01:13.619Z,10.87
2024-01-15T12:02:48.240Z,7.33
2024-01-15T12:04:23.482Z,8.80
2024-01-15T12:05:56.789Z,8.57
2024-01-15T12:07:29.248Z,7.77
2024-01-15T12:09:08.910Z,7.43
2024-01-15T12:10:42.882Z,6.17
2024-01-15T12:12:23.559Z,7.60
2024-01-15T12:13:58.352Z,7.77
2024-01-15T12:15:31.321Z,7.33
2024-01-15T12:17:06.186Z,6.80
2024-01-15T12:18:41.154Z,8.80
2024-01-15T12:20:13.626Z,6.70
2024-01-15T12:21:48.191Z,8.53
2024-01-15T12:23:21.434Z,7.63
2024-01-15T12:24:53.631Z,8.70
2024-01-15T12:26:27.068Z,9.30
2024-01-15T12:28:00.023Z,9.57
2024-01-15T12:29:33.654Z,9.97
2024-01-15T12:31:08.084Z,8.67
2024-01-15T12:32:42.087Z,6.43
2024-01-15T12:34:16.838Z,7.73
2024-01-15T12:35:50.132Z,10.33
2024-01-15T12:37:22.760Z,7.93
2024-01-15T12:38:55.917Z,10.77
2024-01-15T12:40:28.101Z,10.07
2024-01-15T12:42:01.905Z,11.90
2024-01-15T12:43:35.046Z,8.63
2024-01-15T12:45:08.128Z,10.63
2024-01-15T12:46:41.312Z,8.57
2024-01-15T12:48:16.830Z,7.57
2024-01-15T12:49:59.666Z,9.93
2024-01-15T12:51:39.940Z,9.67
2024-01-15T12:53:12.189Z,10.73
2024-01-15T12:54:45.452Z,11.50
2024-01-15T12:56:17.708Z,7.27
2024-01-15T12:57:53.830Z,10.53
2024-01-15T12:59:26.091Z,11.40
2024-01-15T13:00:59.714Z,9.80
2024-01-15T13:02:32.049Z,11.77
2024-01-15T13:04:06.891Z,10.83
2024-01-15T13:05:43.101Z,11.63
2024-01-15T13:07:15.367Z,10.77
2024-01-15T13:08:48.681Z,11.20
2024-01-15T13:10:21.640Z,11.93
2024-01-15T13:11:55.886Z,9.67
2024-01-15T13:13:28.596Z,8.93
2024-01-15T13:15:04.501Z,10.13
2024-01-15T13:16:36.641Z,9.50
2024-01-15T13:18:10.850Z,10.23
2024-01-15T13:19:43.202Z,9.80
2024-01-15T13:21:18.013Z,9.40
2024-01-15T13:22:51.151Z,10.37
2024-01-15T13:24:23.876Z,9.57
2024-01-15T13:25:57.542Z,9.00
2024-01-15T13:27:30.803Z,12.93
2024-01-15T13:29:04.723Z,9.83
2024-01-15T13:30:38.701Z,10.50
2024-01-15T13:32:16.817Z,9.63
2024-01-15T13:33:49.213Z,10.30
2024-01-15T13:35:23.399Z,10.20
2024-01-15T13:36:57.146Z,11.27
2024-01-15T13:38:38.742Z,9.07
2024-01-15T13:40:17.381Z,12.03
2024-01-15T13:41:51.043Z,9.43
2024-01-15T13:43:23.201Z,11.63
2024-01-15T13:44:56.513Z,9.60
2024-01-15T13:46:28.651Z,10.20
2024-01-15T13:48:02.064Z,11.73
2024-01-15T13:49:35.270Z,13.40
2024-01-15T13:51:08.781Z,10.87
2024-01-15T13:52:43.062Z,12.07
2024-01-15T13:54:16.336Z,10.80
2024-01-15T13:55:48.888Z,10.63
2024-01-15T13:57:23.048Z,9.90
2024-01-15T13:58:56.188Z,10.60
2024-01-15T14:00:28.422Z,9.93
2024-01-15T14:02:01.556Z,10.30
2024-01-15T14:03:35.206Z,10.07
2024-01-15T14:05:08.736Z,11.27
2024-01-15T14:06:40.933Z,11.13
2024-01-15T14:08:15.517Z,9.90
2024-01-15T14:09:47.896Z,11.43
2024-01-15T14:11:21.089Z,11.80
2024-01-15T14:12:53.546Z,9.63
2024-01-15T14:14:26.679Z,10.07
2024-01-15T14:15:58.908Z,10.65
2024-01-15T14:17:32.116Z,10.47
2024-01-15T14:19:04.482Z,10.70
2024-01-15T14:20:37.687Z,9.02
2024-01-15T14:22:09.847Z,8.43
2024-01-15T14:23:44.398Z,11.43
2024-01-15T14:25:16.549Z,9.27
2024-01-15T14:26:49.665Z,10.82
2024-01-15T14:28:21.940Z,10.47
2024-01-15T14:29:55.093Z,10.57
2024-01-15T14:31:27.751Z,11.97
2024-01-15T14:33:00.983Z,9.48
2024-01-15T14:34:33.299Z,10.43
2024-01-15T14:36:07.222Z,9.60
2024-01-15T14:37:39.472Z,9.80
2024-01-15T14:39:14.024Z,11.43
2024-01-15T14:40:46.225Z,12.05
2024-01-15T14:42:19.378Z,10.13
2024-01-15T14:43:51.509Z,11.30
2024-01-15T14:45:25.116Z,11.25
2024-01-15T14:46:59.558Z,10.20
2024-01-15T14:48:32.830Z,11.13
2024-01-15T14:50:06.502Z,11.43
2024-01-15T14:51:40.245Z,10.57
2024-01-15T14:53:12.375Z,13.57
2024-01-15T14:54:49.078Z,12.30
2024-01-15T14:56:22.770Z,11.77
2024-01-15T14:57:55.844Z,11.10
2024-01-15T14:59:29.984Z,13.27
2024-01-15T15:01:03.285Z,10.85
2024-01-15T15:02:35.880Z,13.75
2024-01-15T15:04:09.525Z,14.07
2024-01-15T15:05:43.376Z,10.23
2024-01-15T15:07:15.722Z,9.75
2024-01-15T15:08:48.834Z,11.02
2024-01-15T15:10:22.348Z,13.07
2024-01-15T15:11:55.462Z,12.25
2024-01-15T15:13:37.843Z,11.25
2024-01-15T15:15:21.648Z,10.90
2024-01-15T15:16:54.937Z,10.15
2024-01-15T15:18:28.355Z,12.27
2024-01-15T15:20:00.872Z,14.43
2024-01-15T15:21:34.219Z,13.48
2024-01-15T15:23:09.315Z,12.48
2024-01-15T15:24:42.502Z,13.77
2024-01-15T15:26:17.041Z,14.00
2024-01-15T15:27:49.247Z,14.45
2024-01-15T15:29:23.805Z,10.88
2024-01-15T15:30:56.226Z,13.00
2024-01-15T15:32:29.463Z,12.90
2024-01-15T15:34:01.828Z,14.20
2024-01-15T15:35:35.061Z,10.15
2024-01-15T15:37:09.653Z,14.18
2024-01-15T15:38:44.711Z,12.77
2024-01-15T15:40:18.589Z,13.55
2024-01-15T15:41:52.156Z,11.23
2024-01-15T15:43:25.383Z,12.48
2024-01-15T15:45:00.538Z,11.50
2024-01-15T15:46:34.880Z,11.30
2024-01-15T15:48:07.668Z,11.60
2024-01-15T15:49:40.911Z,11.82
2024-01-15T15:51:13.143Z,12.88
2024-01-15T15:52:46.588Z,14.90
2024-01-15T15:54:18.792Z,13.73
2024-01-15T15:55:52.008Z,13.48
2024-01-15T15:57:27.361Z,11.88
2024-01-15T15:59:02.241Z,13.43
2024-01-15T16:00:35.777Z,15.15
2024-01-15T16:02:08.535Z,13.45
2024-01-15T16:03:42.200Z,12.13
2024-01-15T16:05:14.891Z,13.52
2024-01-15T16:06:48.936Z,13.48
2024-01-15T16:08:22.294Z,8.98
2024-01-15T16:09:54.470Z,14.07
2024-01-15T16:11:28.048Z,14.48
2024-01-15T16:13:01.584Z,11.80
2024-01-15T16:14:34.850Z,11.02
2024-01-15T16:23:09.724Z,10.88
2024-01-15T16:23:18.315Z,12.98
2024-01-15T16:23:27.646Z,12.98
2024-01-15T16:23:38.066Z,16.02
2024-01-15T16:24:07.352Z,13.63
2024-01-15T16:25:32.337Z,13.90
2024-01-15T16:28:48.538Z,10.57
2024-01-15T16:30:29.301Z,12.32
2024-01-15T16:32:07.185Z,13.25
2024-01-15T16:33:39.354Z,11.98
2024-01-15T16:35:12.604Z,10.60
2024-01-15T16:36:44.915Z,11.75
2024-01-15T16:38:18.244Z,12.82
2024-01-15T16:39:50.424Z,13.90
2024-01-15T16:41:23.837Z,13.10
2024-01-15T16:42:56.106Z,12.88
2024-01-15T16:44:31.726Z,14.00
2024-01-15T16:46:04.045Z,13.32
2024-01-15T16:47:37.208Z,12.32
2024-01-15T16:49:12.760Z,12.20
2024-01-15T16:50:45.364Z,10.50
2024-01-15T16:52:18.564Z,13.95
2024-01-15T16:53:51.095Z,12.45
2024-01-15T16:55:24.225Z,11.82
2024-01-15T16:56:57.349Z,14.48
2024-01-15T16:58:29.608Z,11.27
2024-01-15T17:00:04.138Z,13.98
2024-01-15T17:01:36.483Z,11.98
2024-01-15T17:03:09.663Z,14.95
2024-01-15T17:04:42.933Z,11.35
2024-01-15T17:06:15.173Z,16.27
2024-01-15T17:07:48.422Z,12.73
2024-01-15T17:09:20.544Z,14.77
2024-01-15T17:10:54.171Z,15.38
2024-01-15T17:12:27.349Z,14.57
2024-01-15T17:14:00.498Z,16.33
2024-01-15T17:15:35.081Z,16.52
2024-01-15T17:17:07.575Z,16.23
2024-01-15T17:18:40.791Z,15.20
2024-01-15T17:20:14.307Z,15.27
2024-01-15T17:21:47.558Z,12.80
2024-01-15T17:23:19.927Z,12.60
2024-01-15T17:24:53.179Z,14.38
2024-01-15T17:26:26.857Z,14.38
2024-01-15T17:28:00.325Z,13.25
2024-01-15T17:29:32.538Z,12.15
2024-01-15T17:31:07.330Z,11.70
2024-01-15T17:32:39.852Z,11.27
2024-01-15T17:34:13.136Z,9.43
2024-01-15T17:35:52.228Z,10.45
2024-01-15T17:37:25.580Z,14.43
2024-01-15T17:38:58.448Z,10.67
2024-01-15T17:40:31.621Z,12.00
2024-01-15T17:42:05.459Z,9.20
2024-01-15T17:43:38.867Z,11.75
2024-01-15T17:45:11.182Z,10.32
2024-01-15T17:46:45.719Z,10.23
2024-01-15T17:48:19.102Z,10.37
2024-01-15T17:49:51.474Z,10.30
2024-01-15T17:51:24.638Z,9.63
2024-01-15T17:52:57.088Z,9.30
2024-01-15T17:54:32.001Z,9.85
2024-01-15T17:56:05.112Z,9.48
2024-01-15T17:57:38.751Z,11.10
2024-01-15T17:59:11.468Z,9.27
2024-01-15T18:00:44.601Z,13.27
2024-01-15T18:02:18.222Z,10.20
2024-01-15T18:03:53.735Z,12.77
2024-01-15T18:05:27.037Z,12.18
2024-01-15T18:06:59.275Z,11.63
2024-01-15T18:08:32.446Z,10.73
2024-01-15T18:10:06.148Z,9.90
2024-01-15T18:11:39.367Z,10.07
2024-01-15T18:13:11.577Z,11.68
2024-01-15T18:14:44.765Z,11.88
2024-01-15T18:16:23.414Z,10.05
2024-01-15T18:17:58.409Z,13.35
2024-01-15T18:19:31.597Z,12.85
2024-01-15T18:21:04.830Z,11.70
2024-01-15T18:22:38.031Z,11.17
2024-01-15T18:24:11.271Z,13.35
2024-01-15T18:25:43.403Z,10.25
2024-01-15T18:27:18.357Z,11.73
2024-01-15T18:28:51.570Z,11.63
2024-01-15T18:30:24.315Z,10.93
2024-01-15T18:31:57.544Z,12.30
2024-01-15T18:33:31.182Z,12.60
2024-01-15T18:35:04.534Z,9.60
2024-01-15T18:36:36.679Z,14.48
2024-01-15T18:38:09.957Z,11.55
2024-01-15T18:39:44.069Z,12.27
2024-01-15T18:41:22.546Z,11.45
2024-01-15T18:42:58.069Z,12.27
2024-01-15T18:44:30.767Z,13.00
2024-01-15T18:46:08.772Z,13.13
2024-01-15T18:47:41.270Z,10.73
2024-01-15T18:49:17.695Z,11.48
2024-01-15T18:50:50.315Z,11.35
2024-01-15T18:52:23.451Z,13.18
2024-01-15T18:53:55.662Z,11.93
2024-01-15T18:55:28.810Z,12.23
2024-01-15T18:57:00.925Z,11.73
2024-01-15T18:58:35.297Z,12.30
2024-01-15T19:00:11.223Z,12.45
2024-01-15T19:01:45.235Z,12.50
2024-01-15T19:03:17.428Z,12.20
2024-01-15T19:04:52.135Z,14.27
2024-01-15T19:06:24.811Z,12.57
2024-01-15T19:07:59.754Z,13.73
2024-01-15T19:09:31.888Z,12.85
2024-01-15T19:11:05.564Z,12.68
2024-01-15T19:12:37.717Z,14.70
2024-01-15T19:14:10.937Z,13.70
2024-01-15T19:15:43.717Z,12.63
2024-01-15T19:17:16.921Z,11.90
2024-01-15T19:18:50.151Z,11.60
2024-01-15T19:20:24.779Z,12.45
2024-01-15T19:21:56.956Z,13.77
2024-01-15T19:23:30.099Z,11.87
2024-01-15T19:25:02.496Z,11.95
2024-01-15T19:26:35.666Z,9.30
2024-01-15T19:28:08.409Z,10.37
2024-01-15T19:29:41.619Z,10.05
2024-01-15T19:31:13.843Z,10.18
2024-01-15T19:32:47.225Z,11.20
2024-01-15T19:34:20.083Z,11.27
2024-01-15T19:35:54.642Z,9.35
2024-01-15T19:37:26.908Z,11.82
2024-01-15T19:39:00.120Z,11.63
2024-01-15T19:40:33.020Z,13.40
2024-01-15T19:42:06.645Z,12.05
2024-01-15T19:43:38.787Z,12.70
2024-01-15T19:45:11.952Z,10.73
2024-01-15T19:46:44.126Z,10.98
2024-01-15T19:48:18.773Z,10.20
2024-01-15T19:49:50.955Z,11.65
2024-01-15T19:51:25.446Z,12.23
2024-01-15T19:52:57.952Z,14.45
2024-01-15T19:54:32.602Z,11.32
2024-01-15T19:56:05.271Z,13.30
2024-01-15T19:57:39.850Z,13.48
2024-01-15T19:59:12.790Z,9.53
2024-01-15T20:00:46.072Z,8.70
2024-01-15T20:02:18.245Z,10.18
2024-01-15T20:03:51.395Z,11.40
2024-01-15T20:05:23.792Z,10.93
2024-01-15T20:06:58.812Z,10.57
2024-01-15T20:08:31.049Z,12.20
2024-01-15T20:10:04.402Z,10.80
2024-01-15T20:11:37.632Z,11.82
2024-01-15T20:13:10.084Z,11.02
2024-01-15T20:14:43.376Z,9.50
2024-01-15T20:16:16.820Z,8.18
2024-01-15T20:17:49.181Z,9.30
2024-01-15T20:19:22.598Z,9.75
2024-01-15T20:20:54.900Z,9.38